Time;durP1;ratioP1;P1;durP2;ratioP2;P2;SDS_P1;SDS_P2;PMS_P1;PMS_P2;Temp;Humidity;BMP_temperature;BMP_pressure;BME280_temperature;BME280_humidity;BME280_pressure;Samples;Min_cycle;Max_cycle;Signal;HPM_P1;HPM_P2
2021/12/31 00:01:00;;;;;;;;;;;;;;;19.14;51.36;101567.13;4984716;28;20068;-45
2021/12/31 00:03:25;;;;;;;;;;;;;;;19.13;51.25;101562.75;4984200;28;20442;-46
2021/12/31 00:05:50;;;;;;;;;;;;;;;19.13;51.28;101568.97;4984889;28;19914;-48
2021/12/31 00:08:15;;;;;;;;;;;;;;;19.14;51.26;101564.44;4984692;28;19932;-44
2021/12/31 00:10:40;;;;;;;;;;;;;;;19.12;51.43;101558.38;4984155;28;19922;-49
2021/12/31 00:13:06;;;;;;;;;;;;;;;19.12;51.24;101558.38;4984534;28;19962;-45
2021/12/31 00:15:31;;;;;;;;;;;;;;;19.12;51.42;101558.38;4984639;28;19915;-44
2021/12/31 00:17:56;;;;;;;;;;;;;;;19.02;51.29;101546.78;4984149;28;19922;-45
2021/12/31 00:20:24;;;;;;;;;;;;;;;19.11;51.26;101553.94;5015189;28;19921;-47
2021/12/31 00:23:03;;;;;;;;;;;;;;;19.11;51.00;101553.94;4984094;28;19918;-49
2021/12/31 00:25:28;;;;;;;;;;;;;;;19.10;51.37;101558.50;4984255;28;19918;-47
2021/12/31 00:27:53;;;;;;;;;;;;;;;19.09;51.18;101556.81;4982925;28;19914;-45
2021/12/31 00:30:18;;;;;;;;;;;;;;;19.10;51.22;101555.78;4984220;28;19921;-48
2021/12/31 00:32:44;;;;;;;;;;;;;;;19.10;51.18;101561.19;4984070;28;19914;-45
2021/12/31 00:35:09;;;;;;;;;;;;;;;19.09;51.24;101564.06;4983875;28;19920;-44
2021/12/31 00:37:35;;;;;;;;;;;;;;;19.08;51.20;101560.50;4984438;28;19914;-48
2021/12/31 00:40:01;;;;;;;;;;;;;;;19.08;51.26;101562.38;4983928;28;19936;-47
2021/12/31 00:42:26;;;;;;;;;;;;;;;19.08;51.32;101557.81;4983888;28;19957;-47
2021/12/31 00:44:51;;;;;;;;;;;;;;;19.09;51.17;101574.84;4983899;28;19925;-44
2021/12/31 00:47:16;;;;;;;;;;;;;;;19.06;51.33;101573.28;4984164;28;19964;-44
2021/12/31 00:49:42;;;;;;;;;;;;;;;19.06;51.09;101570.59;4982974;28;19914;-45
2021/12/31 00:52:07;;;;;;;;;;;;;;;19.07;51.11;101571.44;4982655;28;19918;-47
2021/12/31 00:54:32;;;;;;;;;;;;;;;19.07;51.24;101574.13;4983656;28;19914;-46
2021/12/31 00:57:02;;;;;;;;;;;;;;;19.06;51.24;101581.38;4984187;28;19914;-46
2021/12/31 00:59:28;;;;;;;;;;;;;;;19.06;51.26;101575.97;4983700;28;19929;-47
2021/12/31 01:01:53;;;;;;;;;;;;;;;19.07;51.31;101574.13;4983876;28;19918;-46
2021/12/31 01:04:18;;;;;;;;;;;;;;;19.05;51.12;101585.06;4983372;28;19914;-47
2021/12/31 01:06:43;;;;;;;;;;;;;;;19.05;51.27;101573.44;4984050;28;19921;-44
2021/12/31 01:09:09;;;;;;;;;;;;;;;19.03;51.08;101576.31;4983588;28;19920;-44
2021/12/31 01:11:34;;;;;;;;;;;;;;;19.05;51.19;101573.44;4983513;28;19918;-44
2021/12/31 01:14:03;;;;;;;;;;;;;;;19.03;51.08;101576.31;4983496;28;19914;-44
2021/12/31 01:16:37;;;;;;;;;;;;;;;19.04;51.23;101587.94;4983977;28;19922;-45
2021/12/31 01:21:28;;;;;;;;;;;;;;;19.03;50.98;101579.00;4984084;28;19922;-47
2021/12/31 01:23:53;;;;;;;;;;;;;;;19.02;51.14;101577.28;4983808;28;20532;-45
2021/12/31 01:26:18;;;;;;;;;;;;;;;19.03;51.03;101586.22;4983218;28;19918;-49
2021/12/31 01:28:44;;;;;;;;;;;;;;;19.02;51.09;101582.66;4983446;28;19918;-48
2021/12/31 01:31:09;;;;;;;;;;;;;;;19.02;51.07;101588.06;4983543;28;19969;-49
2021/12/31 01:33:34;;;;;;;;;;;;;;;19.01;51.09;101580.97;4982960;28;19914;-46
2021/12/31 01:35:59;;;;;;;;;;;;;;;19.01;51.03;101577.44;4983835;28;19918;-47
2021/12/31 01:38:25;;;;;;;;;;;;;;;19.01;51.12;101582.84;4983728;28;19914;-44
2021/12/31 01:40:50;;;;;;;;;;;;;;;19.01;51.02;101577.44;4983069;28;19918;-44
2021/12/31 01:43:16;;;;;;;;;;;;;;;19.00;51.02;101576.59;4983505;28;19914;-46
2021/12/31 01:45:46;;;;;;;;;;;;;;;18.99;51.16;101577.59;4983551;28;19922;-44
2021/12/31 01:50:49;;;;;;;;;;;;;;;18.98;50.98;101576.72;4989915;28;19918;-47
2021/12/31 01:53:15;;;;;;;;;;;;;;;18.97;50.92;101580.44;4983577;28;19914;-48
2021/12/31 01:55:40;;;;;;;;;;;;;;;18.98;51.06;101587.50;4983220;28;19914;-49
2021/12/31 01:58:05;;;;;;;;;;;;;;;18.98;51.08;101582.13;5014539;28;19937;-45
2021/12/31 02:00:30;;;;;;;;;;;;;;;18.97;50.85;101591.22;4983070;28;19950;-47
2021/12/31 02:02:56;;;;;;;;;;;;;;;18.98;51.00;101592.06;4983155;28;19915;-47
2021/12/31 02:05:21;;;;;;;;;;;;;;;18.97;51.14;101585.81;5014142;28;19914;-48
2021/12/31 02:07:46;;;;;;;;;;;;;;;18.97;51.14;101598.47;4986272;28;19918;-46
2021/12/31 02:10:11;;;;;;;;;;;;;;;18.97;51.08;101604.69;4986403;28;19924;-47
2021/12/31 02:12:46;;;;;;;;;;;;;;;18.97;51.01;101611.94;4986726;28;19918;-48
2021/12/31 02:15:11;;;;;;;;;;;;;;;18.96;51.01;101616.47;4986734;28;19920;-45
2021/12/31 02:17:36;;;;;;;;;;;;;;;18.96;51.04;101604.84;4986432;28;20381;-44
2021/12/31 02:20:05;;;;;;;;;;;;;;;18.95;50.96;101612.09;4970368;28;19915;-44
2021/12/31 02:22:30;;;;;;;;;;;;;;;18.96;51.08;101613.78;4976224;28;19941;-48
2021/12/31 02:24:56;;;;;;;;;;;;;;;18.96;50.89;101607.53;4986392;28;19922;-47
2021/12/31 02:27:21;;;;;;;;;;;;;;;18.95;50.95;101605.88;4986469;28;19945;-47
2021/12/31 02:29:47;;;;;;;;;;;;;;;18.95;50.93;101605.88;4986291;28;19915;-47
2021/12/31 02:32:12;;;;;;;;;;;;;;;18.94;50.97;101612.22;4986463;28;19920;-45
2021/12/31 02:34:37;;;;;;;;;;;;;;;18.94;50.97;101609.53;4985886;28;19922;-48
2021/12/31 02:37:02;;;;;;;;;;;;;;;18.93;50.87;101610.53;4986475;28;19914;-45
2021/12/31 02:39:27;;;;;;;;;;;;;;;18.93;50.81;101614.06;4986342;28;19929;-44
2021/12/31 02:41:52;;;;;;;;;;;;;;;18.93;51.09;101607.84;4985918;28;19960;-48
2021/12/31 02:44:18;;;;;;;;;;;;;;;18.92;50.79;101607.00;4986186;28;19915;-45
2021/12/31 02:46:43;;;;;;;;;;;;;;;18.92;51.05;101608.84;4986254;28;19937;-46
2021/12/31 02:49:08;;;;;;;;;;;;;;;18.91;50.88;101608.00;4985206;28;20573;-49
2021/12/31 02:51:33;;;;;;;;;;;;;;;18.92;51.03;101600.75;4986106;28;20327;-47
2021/12/31 02:53:59;;;;;;;;;;;;;;;18.90;51.02;101609.00;4986226;28;19914;-45
2021/12/31 02:56:24;;;;;;;;;;;;;;;18.90;50.99;101603.63;4984217;28;19997;-49
2021/12/31 02:58:49;;;;;;;;;;;;;;;18.91;50.89;101604.47;4985654;28;19914;-46
2021/12/31 03:01:14;;;;;;;;;;;;;;;18.89;50.94;101604.59;5016956;28;19964;-45
2021/12/31 03:03:40;;;;;;;;;;;;;;;18.89;51.20;101595.66;4985295;28;19914;-47
2021/12/31 03:06:05;;;;;;;;;;;;;;;18.88;50.94;101605.59;4985945;28;20766;-46
2021/12/31 03:08:31;;;;;;;;;;;;;;;18.87;50.92;101595.84;4985795;28;19918;-45
2021/12/31 03:10:57;;;;;;;;;;;;;;;18.87;50.88;101592.28;4985114;28;20016;-46
2021/12/31 03:13:22;;;;;;;;;;;;;;;18.86;50.96;101577.09;4985843;28;20290;-45
2021/12/31 03:15:47;;;;;;;;;;;;;;;18.86;50.92;101579.78;4985758;28;19918;-46
2021/12/31 03:18:12;;;;;;;;;;;;;;;18.85;50.84;101578.97;5014853;28;19930;-47
2021/12/31 03:20:42;;;;;;;;;;;;;;;18.85;50.80;101587.03;5016760;28;19946;-46
2021/12/31 03:23:07;;;;;;;;;;;;;;;18.84;51.02;101571.88;4985651;28;19914;-45
2021/12/31 03:25:33;;;;;;;;;;;;;;;18.84;50.75;101561.09;4985300;28;19914;-48
2021/12/31 03:27:58;;;;;;;;;;;;;;;18.84;50.80;101568.34;4985425;28;19918;-45
2021/12/31 03:30:23;;;;;;;;;;;;;;;18.84;50.91;101576.41;4985227;28;20006;-48
2021/12/31 03:32:48;;;;;;;;;;;;;;;18.83;50.90;101569.34;4985490;28;20375;-46
2021/12/31 03:35:13;;;;;;;;;;;;;;;18.83;50.94;101564.81;4985021;28;19949;-48
2021/12/31 03:37:38;;;;;;;;;;;;;;;18.83;50.88;101569.34;4985451;28;19938;-46
2021/12/31 03:40:04;;;;;;;;;;;;;;;18.82;51.00;101562.25;4984831;28;19965;-46
2021/12/31 03:42:29;;;;;;;;;;;;;;;18.82;50.84;101564.94;4985112;28;19940;-46
2021/12/31 03:44:54;;;;;;;;;;;;;;;18.82;50.79;101556.84;4985132;28;19921;-46
2021/12/31 03:47:20;;;;;;;;;;;;;;;18.81;51.04;101556.00;4985099;28;19925;-45
2021/12/31 03:49:46;;;;;;;;;;;;;;;18.80;50.80;101546.25;4984552;28;20017;-49
2021/12/31 03:52:11;;;;;;;;;;;;;;;18.81;51.08;101552.47;4985075;28;19915;-45
2021/12/31 03:54:36;;;;;;;;;;;;;;;18.80;50.72;101561.56;4984877;28;19945;-46
2021/12/31 03:57:01;;;;;;;;;;;;;;;18.80;50.98;101545.41;4984823;28;19921;-45
2021/12/31 03:59:26;;;;;;;;;;;;;;;18.78;51.03;101556.34;4984646;28;19921;-47
2021/12/31 04:01:51;;;;;;;;;;;;;;;18.79;50.78;101557.19;4984892;28;19914;-47
2021/12/31 04:04:17;;;;;;;;;;;;;;;18.78;50.94;101550.09;4984203;28;19914;-45
2021/12/31 04:06:42;;;;;;;;;;;;;;;18.78;50.74;101555.50;4984793;28;19921;-44
2021/12/31 04:09:07;;;;;;;;;;;;;;;18.77;50.86;101549.22;4984583;28;19922;-48
2021/12/31 04:11:32;;;;;;;;;;;;;;;18.78;51.03;101552.81;4984382;28;20013;-44
2021/12/31 04:13:57;;;;;;;;;;;;;;;18.77;50.87;101546.53;4984532;28;19918;-45
2021/12/31 04:16:23;;;;;;;;;;;;;;;18.76;50.91;101544.84;4984645;28;19914;-46
2021/12/31 04:18:48;;;;;;;;;;;;;;;18.76;51.08;101550.25;4983604;28;19933;-47
2021/12/31 04:21:18;;;;;;;;;;;;;;;18.76;50.96;101546.69;4984606;28;19933;-44
2021/12/31 04:24:05;;;;;;;;;;;;;;;18.76;50.91;101550.25;4984684;28;19938;-44
2021/12/31 04:26:30;;;;;;;;;;;;;;;18.75;50.94;101551.25;4984281;28;19937;-46
2021/12/31 04:28:56;;;;;;;;;;;;;;;18.75;51.04;101553.09;4983813;28;20509;-47
2021/12/31 04:31:21;;;;;;;;;;;;;;;18.74;50.86;101552.25;4984519;28;19914;-48
2021/12/31 04:33:46;;;;;;;;;;;;;;;18.74;50.89;101552.25;4983860;28;19914;-44
2021/12/31 04:36:11;;;;;;;;;;;;;;;18.73;50.84;101546.03;4984397;28;19914;-45
2021/12/31 04:38:37;;;;;;;;;;;;;;;18.74;50.84;101546.88;4983144;28;19914;-48
2021/12/31 04:41:03;;;;;;;;;;;;;;;18.73;50.97;101539.75;4983651;28;19952;-46
2021/12/31 04:43:28;;;;;;;;;;;;;;;18.72;50.77;101538.06;4984257;28;20359;-44
2021/12/31 04:45:53;;;;;;;;;;;;;;;18.72;50.85;101530.84;4984127;28;19949;-49
2021/12/31 04:48:18;;;;;;;;;;;;;;;18.71;51.05;101526.44;4983204;28;19922;-45
2021/12/31 04:50:43;;;;;;;;;;;;;;;18.72;50.79;101536.22;4983924;28;19921;-46
2021/12/31 04:53:08;;;;;;;;;;;;;;;18.72;50.96;101540.75;4983961;28;20387;-45
2021/12/31 04:55:34;;;;;;;;;;;;;;;18.71;50.84;101537.22;4983956;28;19920;-44
2021/12/31 04:57:59;;;;;;;;;;;;;;;18.71;50.97;101533.69;4983932;28;19914;-47
2021/12/31 05:00:24;;;;;;;;;;;;;;;18.71;50.97;101539.06;4983724;28;19914;-49
2021/12/31 05:02:49;;;;;;;;;;;;;;;18.71;50.83;101544.47;4983708;28;19946;-49
2021/12/31 05:05:14;;;;;;;;;;;;;;;18.70;50.69;101542.78;4983590;28;19914;-47
2021/12/31 05:07:40;;;;;;;;;;;;;;;18.70;50.91;101542.78;5015308;28;19968;-48
2021/12/31 05:10:05;;;;;;;;;;;;;;;18.69;50.88;101544.63;4983540;28;20013;-47
2021/12/31 05:12:33;;;;;;;;;;;;;;;18.69;50.98;101550.00;5015279;28;20376;-47
2021/12/31 05:15:00;;;;;;;;;;;;;;;18.68;50.78;101545.56;4983992;28;19950;-48
2021/12/31 05:17:26;;;;;;;;;;;;;;;18.69;50.94;101535.63;4983653;28;19922;-49
2021/12/31 05:19:51;;;;;;;;;;;;;;;18.69;50.93;101532.94;4982919;28;19993;-46
2021/12/31 05:22:16;;;;;;;;;;;;;;;18.68;50.66;101540.19;4983486;28;20586;-46
2021/12/31 05:24:41;;;;;;;;;;;;;;;18.68;50.94;101531.25;4983602;28;19921;-49
2021/12/31 05:27:07;;;;;;;;;;;;;;;18.67;50.91;101514.25;4983537;28;19918;-45
2021/12/31 05:29:32;;;;;;;;;;;;;;;18.67;50.78;101508.03;4983439;28;19914;-48
2021/12/31 05:31:57;;;;;;;;;;;;;;;18.68;50.96;101509.72;4983798;28;19925;-47
2021/12/31 05:34:23;;;;;;;;;;;;;;;18.67;50.84;101503.47;4983082;28;19953;-47
2021/12/31 05:36:48;;;;;;;;;;;;;;;18.66;50.87;101491.03;4983900;28;19925;-49
2021/12/31 05:39:13;;;;;;;;;;;;;;;18.66;50.74;101484.78;4983391;28;19925;-45
2021/12/31 05:41:40;;;;;;;;;;;;;;;18.66;50.74;101479.41;4983345;28;19915;-46
2021/12/31 05:44:05;;;;;;;;;;;;;;;18.66;50.92;101484.78;4987278;28;19981;-45
2021/12/31 05:46:30;;;;;;;;;;;;;;;18.65;50.67;101486.63;4987584;28;19921;-45
2021/12/31 05:48:55;;;;;;;;;;;;;;;18.66;50.65;101490.19;4985080;28;19922;-45
2021/12/31 05:51:21;;;;;;;;;;;;;;;18.65;50.66;101480.41;4987367;28;19914;-45
2021/12/31 05:53:46;;;;;;;;;;;;;;;18.65;50.67;101480.41;4987301;28;19914;-50
2021/12/31 05:56:11;;;;;;;;;;;;;;;18.64;50.69;101487.63;4986824;28;20030;-45
2021/12/31 05:58:36;;;;;;;;;;;;;;;18.64;50.76;101486.78;4986799;28;19941;-45
2021/12/31 06:01:01;;;;;;;;;;;;;;;18.63;50.73;101485.94;4987072;28;19950;-44
2021/12/31 06:03:27;;;;;;;;;;;;;;;18.63;50.70;101491.31;5017961;28;19914;-45
2021/12/31 06:05:53;;;;;;;;;;;;;;;18.63;50.69;101498.56;4987136;28;19914;-48
2021/12/31 06:08:18;;;;;;;;;;;;;;;18.62;50.74;101486.94;4986941;28;19925;-46
2021/12/31 06:10:43;;;;;;;;;;;;;;;18.62;50.85;101491.47;4986484;28;19924;-47
2021/12/31 06:13:09;;;;;;;;;;;;;;;18.61;50.75;101489.78;4986618;28;19922;-45
2021/12/31 06:15:35;;;;;;;;;;;;;;;18.62;50.67;101480.72;4986473;28;19937;-46
2021/12/31 06:18:00;;;;;;;;;;;;;;;18.61;51.02;101497.88;4985186;28;19926;-48
2021/12/31 06:20:28;;;;;;;;;;;;;;;18.61;50.68;101496.03;4985702;28;19921;-44
2021/12/31 06:22:53;;;;;;;;;;;;;;;18.60;50.70;101496.16;4986050;28;19914;-50
2021/12/31 06:25:18;;;;;;;;;;;;;;;18.61;50.62;101503.25;4986039;28;19969;-48
2021/12/31 06:27:44;;;;;;;;;;;;;;;18.60;50.64;101498.84;4985752;28;19918;-45
2021/12/31 06:30:09;;;;;;;;;;;;;;;18.61;50.68;101505.94;4985672;28;20076;-44
2021/12/31 06:32:34;;;;;;;;;;;;;;;18.60;50.83;101513.16;4986362;28;19915;-47
2021/12/31 06:34:59;;;;;;;;;;;;;;;18.60;50.73;101502.38;4985829;28;20387;-45
2021/12/31 06:37:25;;;;;;;;;;;;;;;18.60;50.89;101498.84;4986547;28;20473;-44
2021/12/31 06:39:50;;;;;;;;;;;;;;;18.60;50.72;101505.06;4985470;28;19977;-47
2021/12/31 06:42:15;;;;;;;;;;;;;;;18.60;50.67;101491.63;4985778;28;20076;-45
2021/12/31 06:44:40;;;;;;;;;;;;;;;18.60;50.76;101491.63;4985653;28;19914;-44
2021/12/31 06:47:06;;;;;;;;;;;;;;;18.59;50.75;101475.63;4985348;28;19945;-46
2021/12/31 06:49:31;;;;;;;;;;;;;;;18.60;50.93;101488.06;4984960;28;19914;-49
2021/12/31 06:51:56;;;;;;;;;;;;;;;18.60;51.06;101488.06;4985436;28;19953;-46
2021/12/31 06:54:21;;;;;;;;;;;;;;;18.60;50.83;101480.84;4985728;28;19925;-45
2021/12/31 06:56:46;;;;;;;;;;;;;;;18.60;50.79;101490.78;4985360;28;19998;-45
2021/12/31 06:59:11;;;;;;;;;;;;;;;18.60;50.97;101485.38;4982560;28;19914;-46
2021/12/31 07:01:36;;;;;;;;;;;;;;;18.59;50.93;101489.94;4985703;28;19914;-44
2021/12/31 07:04:02;;;;;;;;;;;;;;;18.60;51.13;101496.16;4984690;28;19978;-45
2021/12/31 07:06:27;;;;;;;;;;;;;;;18.60;50.88;101496.16;4985529;28;19922;-49
2021/12/31 07:08:52;;;;;;;;;;;;;;;18.59;51.04;101491.78;4979315;28;19926;-45
2021/12/31 07:11:20;;;;;;;;;;;;;;;18.59;51.09;101495.31;4980830;28;20318;-45
2021/12/31 07:13:45;;;;;;;;;;;;;;;18.59;50.98;101491.78;4983181;28;19924;-45
2021/12/31 07:16:10;;;;;;;;;;;;;;;18.60;50.79;101490.78;4983602;28;20004;-45
2021/12/31 07:18:35;;;;;;;;;;;;;;;18.59;51.03;101487.22;4981451;28;19926;-49
2021/12/31 07:21:00;;;;;;;;;;;;;;;18.59;50.97;101489.94;4983014;28;20350;-44
2021/12/31 07:23:25;;;;;;;;;;;;;;;18.60;51.02;101480.00;4983738;28;19914;-45
2021/12/31 07:25:51;;;;;;;;;;;;;;;18.60;50.99;101482.69;4982619;28;20025;-46
2021/12/31 07:28:16;;;;;;;;;;;;;;;18.61;50.97;101489.78;4982408;28;19965;-47
2021/12/31 07:30:42;;;;;;;;;;;;;;;18.61;51.17;101487.94;4982874;28;19953;-43
2021/12/31 07:33:13;;;;;;;;;;;;;;;18.62;51.04;101483.41;4982177;28;19915;-47
2021/12/31 07:35:38;;;;;;;;;;;;;;;18.63;50.98;101477.84;4983138;28;19922;-44
2021/12/31 07:38:03;;;;;;;;;;;;;;;18.65;51.28;101488.50;4982335;28;20015;-49
2021/12/31 07:40:39;;;;;;;;;;;;;;;18.66;51.05;101487.47;4979889;28;19914;-45
2021/12/31 07:43:05;;;;;;;;;;;;;;;18.68;51.10;101490.84;4980458;28;20438;-43
2021/12/31 07:45:30;;;;;;;;;;;;;;;18.70;51.19;101491.59;4983054;28;19914;-49
2021/12/31 07:47:55;;;;;;;;;;;;;;;18.72;51.25;101478.81;4982609;28;19926;-43
2021/12/31 07:50:20;;;;;;;;;;;;;;;18.73;51.14;101475.97;4981886;28;19914;-47
2021/12/31 07:52:46;;;;;;;;;;;;;;;18.76;51.29;101484.75;4983026;28;19930;-47
2021/12/31 07:55:11;;;;;;;;;;;;;;;18.77;51.27;101479.19;4982546;28;19914;-44
2021/12/31 07:57:36;;;;;;;;;;;;;;;18.79;51.24;101500.59;4978781;28;19918;-50
2021/12/31 08:00:02;;;;;;;;;;;;;;;18.81;51.16;101498.59;4982003;28;20287;-48
2021/12/31 08:02:27;;;;;;;;;;;;;;;18.81;51.35;101498.59;4981793;28;19921;-46
2021/12/31 08:04:52;;;;;;;;;;;;;;;18.82;51.42;101503.84;4980914;28;19918;-49
2021/12/31 08:07:17;;;;;;;;;;;;;;;18.84;51.28;101512.59;4980321;28;19932;-49
2021/12/31 08:09:42;;;;;;;;;;;;;;;18.85;51.32;101516.16;4982457;28;19953;-48
2021/12/31 08:12:08;;;;;;;;;;;;;;;18.86;51.46;101520.53;4982735;28;19918;-46
2021/12/31 08:14:33;;;;;;;;;;;;;;;18.87;51.46;101524.94;4982513;28;20381;-42
2021/12/31 08:16:58;;;;;;;;;;;;;;;18.88;51.40;101518.53;4982136;28;19918;-50
2021/12/31 08:19:23;;;;;;;;;;;;;;;18.89;51.43;101521.06;4981649;28;20469;-48
2021/12/31 08:21:48;;;;;;;;;;;;;;;18.91;51.45;101515.53;4982145;28;19918;-45
2021/12/31 08:24:13;;;;;;;;;;;;;;;18.91;51.39;101518.25;4982774;28;19973;-45
2021/12/31 08:26:39;;;;;;;;;;;;;;;18.91;51.45;101529.88;4983906;28;19914;-51
2021/12/31 08:29:04;;;;;;;;;;;;;;;18.94;51.08;101520.59;4983827;28;19929;-48
2021/12/31 08:31:29;;;;;;;;;;;;;;;18.94;51.09;101526.84;4984408;28;19914;-45
2021/12/31 08:33:54;;;;;;;;;;;;;;;18.95;51.23;101519.63;4983674;28;19921;-51
2021/12/31 08:36:19;;;;;;;;;;;;;;;18.94;51.23;101504.44;4984086;28;19924;-47
2021/12/31 08:38:45;;;;;;;;;;;;;;;18.95;50.82;101509.69;4984499;28;20142;-47
2021/12/31 08:41:10;;;;;;;;;;;;;;;18.94;50.83;101504.44;4984029;28;19968;-46
2021/12/31 08:43:35;;;;;;;;;;;;;;;18.93;50.90;101511.69;4983898;28;19922;-47
2021/12/31 08:46:00;;;;;;;;;;;;;;;18.93;50.58;101518.91;4984055;28;19968;-45
2021/12/31 08:48:26;;;;;;;;;;;;;;;18.92;50.77;101512.69;4983358;28;19921;-45
2021/12/31 08:50:51;;;;;;;;;;;;;;;18.90;50.90;101506.63;4983813;28;19942;-46
2021/12/31 08:53:16;;;;;;;;;;;;;;;18.90;50.93;101512.00;4984068;28;19921;-47
2021/12/31 08:55:42;;;;;;;;;;;;;;;18.89;50.97;101507.59;4983426;28;19949;-44
2021/12/31 08:58:07;;;;;;;;;;;;;;;18.89;50.75;101514.84;4983336;28;20570;-43
2021/12/31 09:00:32;;;;;;;;;;;;;;;18.89;50.80;101518.38;4982392;28;19973;-50
2021/12/31 09:02:57;;;;;;;;;;;;;;;18.88;50.73;101511.28;4983092;28;19925;-44
2021/12/31 09:05:22;;;;;;;;;;;;;;;18.87;50.76;101504.22;4974072;28;19918;-48
2021/12/31 09:07:48;;;;;;;;;;;;;;;18.88;50.86;101499.69;4981503;28;19953;-45
2021/12/31 09:10:13;;;;;;;;;;;;;;;18.89;50.86;101504.06;4981699;28;19922;-48
2021/12/31 09:12:38;;;;;;;;;;;;;;;18.89;50.93;101499.50;4981545;28;19918;-45
2021/12/31 09:15:05;;;;;;;;;;;;;;;18.91;50.88;101511.00;4981817;28;19980;-46
2021/12/31 09:17:30;;;;;;;;;;;;;;;18.92;50.70;101515.38;4985415;28;19922;-48
2021/12/31 09:19:55;;;;;;;;;;;;;;;18.93;50.62;101500.91;4979601;28;19925;-51
2021/12/31 09:22:20;;;;;;;;;;;;;;;18.94;50.60;101505.28;4984085;28;19914;-47
2021/12/31 09:24:45;;;;;;;;;;;;;;;18.97;50.66;101498.75;4985330;28;19953;-49
2021/12/31 09:27:11;;;;;;;;;;;;;;;19.00;50.89;101494.91;4985355;28;19990;-47
2021/12/31 09:29:36;;;;;;;;;;;;;;;19.01;50.62;101500.13;4979764;28;19922;-44
2021/12/31 09:32:01;;;;;;;;;;;;;;;19.05;50.71;101511.47;4985207;28;19921;-45
2021/12/31 09:34:26;;;;;;;;;;;;;;;19.07;50.57;101534.53;4984687;28;19920;-48
2021/12/31 09:36:51;;;;;;;;;;;;;;;19.09;50.54;101543.34;4979069;28;19918;-47
2021/12/31 09:39:16;;;;;;;;;;;;;;;19.10;50.50;101553.09;4984638;28;19922;-48
2021/12/31 09:41:42;;;;;;;;;;;;;;;19.10;50.28;101539.63;4984624;28;19965;-48
2021/12/31 09:44:07;;;;;;;;;;;;;;;19.11;50.51;101530.53;4984667;28;19915;-45
2021/12/31 09:46:33;;;;;;;;;;;;;;;19.11;50.32;101527.00;4983537;28;19914;-47
2021/12/31 09:48:58;;;;;;;;;;;;;;;19.12;50.23;101534.09;4984408;28;19926;-46
2021/12/31 09:51:23;;;;;;;;;;;;;;;19.13;50.30;101543.88;4977766;28;19929;-45
2021/12/31 09:53:51;;;;;;;;;;;;;;;19.14;50.05;101550.94;4999053;28;19918;-43
2021/12/31 09:56:16;;;;;;;;;;;;;;;19.15;50.21;101558.88;4984299;28;19925;-44
2021/12/31 09:58:41;;;;;;;;;;;;;;;19.18;50.34;101553.19;4983718;28;19926;-47
2021/12/31 10:01:08;;;;;;;;;;;;;;;19.21;50.59;101544.78;4984767;28;20120;-46
2021/12/31 10:03:34;;;;;;;;;;;;;;;19.25;50.54;101542.63;4983108;28;19941;-44
2021/12/31 10:06:00;;;;;;;;;;;;;;;19.30;50.70;101563.75;4983737;28;19915;-45
2021/12/31 10:08:26;;;;;;;;;;;;;;;19.35;50.35;101573.03;4983140;28;19998;-48
2021/12/31 10:11:10;;;;;;;;;;;;;;;19.38;50.42;101575.44;4984725;28;19914;-47
2021/12/31 10:13:37;;;;;;;;;;;;;;;19.40;50.48;101588.75;4982937;28;19920;-42
2021/12/31 10:16:02;;;;;;;;;;;;;;;19.39;50.30;101593.31;4981116;28;19922;-43
2021/12/31 10:18:37;;;;;;;;;;;;;;;19.38;50.62;101580.84;4979214;28;19940;-41
2021/12/31 10:21:05;;;;;;;;;;;;;;;19.37;50.54;101583.66;4983195;28;21280;-46
2021/12/31 10:23:30;;;;;;;;;;;;;;;19.35;50.55;101574.91;4978464;28;19982;-45
2021/12/31 10:26:07;;;;;;;;;;;;;;;19.33;50.57;101574.22;4982182;28;19914;-50
2021/12/31 10:28:32;;;;;;;;;;;;;;;19.30;50.64;101548.41;4983378;28;19918;-46
2021/12/31 10:31:10;;;;;;;;;;;;;;;19.29;50.42;101551.25;4983602;28;19926;-45
2021/12/31 10:33:40;;;;;;;;;;;;;;;19.28;50.54;101560.34;4979665;28;19914;-46
2021/12/31 10:36:05;;;;;;;;;;;;;;;19.19;50.64;101544.09;4983945;28;19918;-43
2021/12/31 10:38:36;;;;;;;;;;;;;;;19.28;50.62;101541.47;4983811;28;19952;-46
2021/12/31 10:41:03;;;;;;;;;;;;;;;19.29;50.55;101549.41;4984017;28;19914;-48
2021/12/31 10:43:29;;;;;;;;;;;;;;;19.29;50.48;101546.72;4984118;28;19981;-41
2021/12/31 10:46:08;;;;;;;;;;;;;;;19.29;50.59;101529.69;4981628;28;19921;-43
2021/12/31 10:48:44;;;;;;;;;;;;;;;19.28;50.58;101520.75;4983257;28;20517;-46
2021/12/31 10:51:09;;;;;;;;;;;;;;;19.29;50.55;101513.53;4983723;28;19946;-46
2021/12/31 10:53:36;;;;;;;;;;;;;;;19.28;50.53;101517.19;4983869;28;19977;-46
2021/12/31 10:56:09;;;;;;;;;;;;;;;19.28;50.49;101544.16;4983092;28;19973;-48
2021/12/31 10:58:34;;;;;;;;;;;;;;;19.27;50.46;101523.59;4983370;28;20235;-47
2021/12/31 11:01:00;;;;;;;;;;;;;;;19.26;50.47;101528.16;4981900;28;19964;-47
2021/12/31 11:03:25;;;;;;;;;;;;;;;19.25;50.26;101501.34;4980486;28;19918;-45
2021/12/31 11:05:50;;;;;;;;;;;;;;;19.25;50.48;101498.66;4985298;28;20001;-45
2021/12/31 11:08:15;;;;;;;;;;;;;;;19.24;50.43;101495.09;4984511;28;19922;-44
2021/12/31 11:10:41;;;;;;;;;;;;;;;19.23;50.33;101488.84;4984751;28;19914;-46
2021/12/31 11:13:18;;;;;;;;;;;;;;;19.22;50.39;101478.25;4985441;28;19938;-50
2021/12/31 11:15:44;;;;;;;;;;;;;;;19.22;50.38;101483.63;4985951;28;19999;-48
2021/12/31 11:18:09;;;;;;;;;;;;;;;19.21;50.33;101488.19;4984937;28;19934;-44
2021/12/31 11:20:34;;;;;;;;;;;;;;;19.22;50.41;101499.81;4985762;28;20688;-45
2021/12/31 11:23:00;;;;;;;;;;;;;;;19.20;50.52;101501.81;4983750;28;19918;-44
2021/12/31 11:25:28;;;;;;;;;;;;;;;19.21;50.37;101495.44;4983750;28;19914;-43
2021/12/31 11:27:55;;;;;;;;;;;;;;;19.22;50.50;101476.38;4984376;28;19947;-44
2021/12/31 11:30:29;;;;;;;;;;;;;;;19.25;50.45;101475.25;4983560;28;19922;-45
2021/12/31 11:32:55;;;;;;;;;;;;;;;19.27;50.43;101453.50;4982126;28;19914;-45
2021/12/31 11:35:27;;;;;;;;;;;;;;;19.29;50.26;101429.94;4984736;28;19993;-43
2021/12/31 11:37:52;;;;;;;;;;;;;;;19.32;50.12;101445.78;4984827;28;19914;-47
2021/12/31 11:40:25;;;;;;;;;;;;;;;19.33;50.10;101448.34;4983887;28;19921;-47
2021/12/31 11:43:09;;;;;;;;;;;;;;;19.35;50.15;101465.19;4984481;28;19914;-48
2021/12/31 11:45:34;;;;;;;;;;;;;;;19.35;50.13;101456.25;4982298;28;19922;-44
2021/12/31 11:47:59;;;;;;;;;;;;;;;19.35;50.03;101456.25;4984360;28;19926;-44
2021/12/31 11:50:25;;;;;;;;;;;;;;;19.34;49.98;101444.63;4984184;28;19965;-45
2021/12/31 11:53:01;;;;;;;;;;;;;;;19.34;50.02;101436.53;4984800;28;19914;-45
2021/12/31 11:55:26;;;;;;;;;;;;;;;19.34;50.03;101439.25;4984654;28;20049;-44
2021/12/31 11:57:52;;;;;;;;;;;;;;;19.34;49.87;101444.63;4984735;28;19943;-47
2021/12/31 12:00:24;;;;;;;;;;;;;;;19.34;50.03;101455.41;4984718;28;20021;-44
2021/12/31 12:02:50;;;;;;;;;;;;;;;19.34;49.85;101452.72;4984690;28;19922;-45
2021/12/31 12:05:15;;;;;;;;;;;;;;;19.33;49.85;101458.28;5015724;28;19939;-45
2021/12/31 12:07:47;;;;;;;;;;;;;;;19.32;49.81;101478.13;4985078;28;19922;-44
2021/12/31 12:10:14;;;;;;;;;;;;;;;19.32;49.86;101464.66;5015284;28;19918;-46
2021/12/31 12:12:39;;;;;;;;;;;;;;;19.30;49.95;101450.50;4984540;28;19918;-44
2021/12/31 12:15:14;;;;;;;;;;;;;;;19.28;50.04;101453.34;4984620;28;20275;-46
2021/12/31 12:17:43;;;;;;;;;;;;;;;19.27;49.99;101472.38;4984223;28;19932;-49
2021/12/31 12:20:13;;;;;;;;;;;;;;;19.22;50.23;101460.22;4976721;28;19936;-46
2021/12/31 12:22:42;;;;;;;;;;;;;;;19.21;50.33;101444.22;4981745;28;19918;-47
2021/12/31 12:25:10;;;;;;;;;;;;;;;19.22;50.25;101452.13;4981719;28;19925;-50
2021/12/31 12:27:35;;;;;;;;;;;;;;;19.22;50.56;101445.88;4980879;28;19926;-45
2021/12/31 12:30:02;;;;;;;;;;;;;;;19.23;50.78;101448.41;4981902;28;19925;-48
2021/12/31 12:35:11;;;;;;;;;;;;;;;19.22;50.99;101475.53;4987317;28;19921;-50
2021/12/31 12:37:36;;;;;;;;;;;;;;;19.20;51.13;101477.56;4981579;28;20133;-47